Time;durP1;ratioP1;P1;durP2;ratioP2;P2;SDS_P1;SDS_P2;PMS_P1;PMS_P2;Temp;Humidity;BMP_temperature;BMP_pressure;BME280_temperature;BME280_humidity;BME280_pressure;Samples;Min_cycle;Max_cycle;Signal;HPM_P1;HPM_P2
2022/08/14 00:00:50;;;;;;;12.02;8.10;;;;;;;23.50;46.77;101027.03;6203127;23;20016;-62
2022/08/14 00:03:21;;;;;;;10.38;8.52;;;;;;;23.51;46.45;101029.56;6213649;23;20377;-61
2022/08/14 00:05:46;;;;;;;9.85;8.50;;;;;;;23.50;46.60;101029.88;6214676;23;20009;-61
2022/08/14 00:08:12;;;;;;;10.00;8.57;;;;;;;23.49;46.64;101025.38;6213797;23;20388;-61
2022/08/14 00:10:37;;;;;;;11.07;9.65;;;;;;;23.45;46.66;101024.38;6214459;23;20012;-61
2022/08/14 00:13:02;;;;;;;10.57;9.43;;;;;;;23.43;47.11;101021.06;6211983;23;20004;-62
2022/08/14 00:15:31;;;;;;;12.55;9.30;;;;;;;23.39;47.25;101018.09;6212214;23;20035;-62
2022/08/14 00:17:57;;;;;;;11.32;10.13;;;;;;;23.37;46.95;101016.75;6214352;23;20345;-61
2022/08/14 00:20:27;;;;;;;12.63;9.30;;;;;;;23.23;46.98;101011.28;6213500;23;20011;-62
2022/08/14 00:22:53;;;;;;;9.60;8.63;;;;;;;23.30;46.67;101005.91;6213270;23;20012;-62
2022/08/14 00:25:18;;;;;;;10.48;9.18;;;;;;;23.27;46.82;101004.59;6215003;23;20042;-62
2022/08/14 00:27:43;;;;;;;10.35;9.23;;;;;;;23.27;46.88;100995.28;6214897;23;20092;-62
2022/08/14 00:30:11;;;;;;;10.30;9.18;;;;;;;23.22;46.62;101001.94;6213762;23;20058;-61
2022/08/14 00:32:36;;;;;;;11.27;9.68;;;;;;;23.13;46.86;100994.63;6213555;23;20028;-61
2022/08/14 00:35:06;;;;;;;12.60;9.27;;;;;;;23.07;46.81;100985.47;6215315;23;20016;-62
2022/08/14 00:37:33;;;;;;;12.50;9.48;;;;;;;23.14;46.80;100988.59;6212721;23;20012;-61
2022/08/14 00:39:59;;;;;;;12.10;9.57;;;;;;;23.04;47.14;100986.13;6214465;23;20009;-61
2022/08/14 00:42:28;;;;;;;13.38;10.35;;;;;;;22.99;47.18;100980.63;6213538;23;20112;-62
2022/08/14 00:44:55;;;;;;;12.05;10.15;;;;;;;23.00;47.09;100976.66;6213304;23;20005;-61
2022/08/14 00:47:23;;;;;;;15.27;10.10;;;;;;;23.02;46.70;100971.47;6214089;23;20369;-62
2022/08/14 00:49:49;;;;;;;10.85;9.93;;;;;;;22.99;46.74;100974.97;6214814;23;20009;-63
2022/08/14 00:52:16;;;;;;;12.60;9.82;;;;;;;22.89;47.04;100972.47;6213850;23;20016;-61
2022/08/14 00:54:42;;;;;;;11.13;9.95;;;;;;;22.86;47.09;100964.63;6214635;23;20008;-62
2022/08/14 00:57:08;;;;;;;13.95;9.38;;;;;;;22.85;47.13;100966.63;6213546;23;20016;-62
2022/08/14 00:59:34;;;;;;;10.35;9.45;;;;;;;22.86;47.16;100962.63;6215082;23;20012;-61
2022/08/14 01:02:00;;;;;;;10.52;9.50;;;;;;;22.77;47.35;100959.81;6213668;23;20071;-62
2022/08/14 01:04:30;;;;;;;11.80;10.38;;;;;;;22.70;47.56;100959.47;6212872;23;20004;-61
2022/08/14 01:06:56;;;;;;;10.50;9.38;;;;;;;22.81;47.29;100954.31;6214547;23;20310;-62
2022/08/14 01:09:21;;;;;;;10.43;9.32;;;;;;;22.79;47.37;100948.13;6214567;23;20015;-61
2022/08/14 01:11:51;;;;;;;11.68;9.98;;;;;;;22.70;47.60;100950.97;6213738;23;20044;-61
2022/08/14 01:14:17;;;;;;;10.98;9.95;;;;;;;22.69;47.53;100940.00;6214684;23;20005;-61
2022/08/14 01:16:43;;;;;;;10.98;10.05;;;;;;;22.66;47.13;100938.66;6213239;23;20006;-61
2022/08/14 01:21:53;;;;;;;14.57;9.60;;;;;;;22.64;47.24;100938.19;6214489;23;20028;-61
2022/08/14 01:24:20;;;;;;;11.50;9.93;;;;;;;22.63;47.27;100935.66;6214519;23;20013;-61
2022/08/14 01:26:45;;;;;;;11.30;10.20;;;;;;;22.58;47.42;100933.00;6213323;23;20036;-61
2022/08/14 01:29:12;;;;;;;11.55;10.32;;;;;;;22.56;47.44;100933.34;6213523;23;20047;-61
2022/08/14 01:32:00;;;;;;;12.27;9.80;;;;;;;22.55;47.42;100940.16;6212825;23;20012;-61
2022/08/14 01:34:25;;;;;;;12.93;10.32;;;;;;;22.51;47.68;100934.31;6213232;23;20028;-61
2022/08/14 01:36:52;;;;;;;14.82;10.73;;;;;;;22.51;47.67;100944.81;6213377;23;20001;-61
2022/08/14 01:39:19;;;;;;;11.57;10.38;;;;;;;22.50;47.82;100940.31;6214097;23;20322;-61
2022/08/14 01:41:55;;;;;;;13.88;10.07;;;;;;;22.49;47.89;100935.84;6215315;23;20075;-62
2022/08/14 01:44:22;;;;;;;12.88;10.18;;;;;;;22.45;47.75;100940.50;6214353;23;20044;-61
2022/08/14 01:46:49;;;;;;;11.13;10.13;;;;;;;22.43;48.02;100942.81;6213685;23;20005;-61
2022/08/14 01:49:14;;;;;;;10.93;9.82;;;;;;;22.37;47.92;100938.50;6214667;23;20024;-61
2022/08/14 01:51:42;;;;;;;12.05;10.88;;;;;;;22.38;47.99;100943.81;6212726;23;20075;-62
2022/08/14 01:54:19;;;;;;;12.13;11.00;;;;;;;22.33;47.89;100943.97;6213560;23;20076;-61
2022/08/14 01:56:44;;;;;;;13.18;10.15;;;;;;;22.33;48.26;100943.97;6215857;23;20005;-62
2022/08/14 01:59:16;;;;;;;12.15;11.05;;;;;;;22.30;48.21;100941.81;6214952;23;20050;-61
2022/08/14 02:01:42;;;;;;;12.20;11.07;;;;;;;22.31;48.26;100940.63;6214169;23;20012;-61
2022/08/14 02:04:08;;;;;;;13.82;11.45;;;;;;;22.25;48.51;100931.50;6213406;23;20447;-61
2022/08/14 02:06:36;;;;;;;13.10;11.05;;;;;;;22.26;48.43;100927.50;6214905;23;20001;-61
2022/08/14 02:09:03;;;;;;;12.90;11.43;;;;;;;22.20;48.58;100928.78;6214633;23;20071;-61
2022/08/14 02:11:29;;;;;;;13.10;11.90;;;;;;;22.16;48.35;100922.13;6214529;23;20332;-60
2022/08/14 02:14:03;;;;;;;14.68;11.55;;;;;;;22.20;48.46;100927.97;6213874;23;20424;-61
2022/08/14 02:16:32;;;;;;;13.57;12.07;;;;;;;22.16;48.55;100924.13;6213816;23;20331;-61
2022/08/14 02:19:01;;;;;;;15.52;12.65;;;;;;;22.15;48.61;100920.47;6215255;23;20320;-61
2022/08/14 02:21:31;;;;;;;14.57;12.38;;;;;;;22.10;48.92;100920.63;6212835;23;20062;-61
2022/08/14 02:24:00;;;;;;;14.13;11.45;;;;;;;22.08;49.01;100922.91;6212974;23;20011;-61
2022/08/14 02:26:28;;;;;;;14.57;12.63;;;;;;;22.01;49.33;100911.28;6214669;23;20093;-61
2022/08/14 02:29:01;;;;;;;12.55;11.00;;;;;;;22.10;49.15;100926.28;6213305;23;20325;-61
2022/08/14 02:31:31;;;;;;;12.43;11.40;;;;;;;22.06;48.85;100926.09;6212166;23;20004;-61
2022/08/14 02:33:58;;;;;;;13.30;12.00;;;;;;;22.06;49.02;100922.44;6213304;23;20522;-61
2022/08/14 02:36:24;;;;;;;12.88;11.57;;;;;;;22.03;49.19;100917.44;6212752;23;20032;-61
2022/08/14 02:38:49;;;;;;;13.63;11.73;;;;;;;21.99;49.43;100913.59;6213717;23;20009;-61
2022/08/14 02:41:17;;;;;;;13.95;12.55;;;;;;;21.91;49.74;100914.41;6213403;23;20011;-61
2022/08/14 02:43:43;;;;;;;13.43;12.15;;;;;;;21.97;49.60;100915.94;6213235;23;20108;-61
2022/08/14 02:46:10;;;;;;;12.68;11.40;;;;;;;21.98;49.63;100915.59;6212198;23;20086;-61
2022/08/14 02:48:40;;;;;;;13.02;11.82;;;;;;;21.96;49.58;100915.06;6213289;23;20009;-61
2022/08/14 02:51:09;;;;;;;14.25;12.82;;;;;;;21.90;49.68;100909.94;6210876;23;20013;-61
2022/08/14 02:53:38;;;;;;;12.90;11.25;;;;;;;21.98;49.32;100909.94;6213375;23;20008;-61
2022/08/14 02:56:05;;;;;;;16.70;13.27;;;;;;;21.82;49.40;100914.41;6213687;23;20005;-61
2022/08/14 02:58:37;;;;;;;14.02;12.70;;;;;;;21.79;49.54;100910.22;6213655;23;20063;-61
2022/08/14 03:01:03;;;;;;;14.50;13.00;;;;;;;21.78;49.17;100907.72;6211867;23;20040;-61
2022/08/14 03:03:29;;;;;;;13.70;12.18;;;;;;;21.74;49.28;100901.91;6210814;23;20027;-61
2022/08/14 03:05:54;;;;;;;13.30;12.10;;;;;;;21.75;49.18;100897.91;6211323;23;20005;-60
2022/08/14 03:08:20;;;;;;;13.30;12.00;;;;;;;21.66;49.34;100896.22;6213063;23;20012;-60
2022/08/14 03:10:46;;;;;;;13.07;11.98;;;;;;;21.67;49.44;100895.06;6211754;23;20004;-61
2022/08/14 03:13:12;;;;;;;13.50;12.13;;;;;;;21.65;49.46;100888.91;6212779;23;20459;-61
2022/08/14 03:15:45;;;;;;;13.55;10.82;;;;;;;21.56;49.22;100897.34;6214013;23;20001;-61
2022/08/14 03:18:12;;;;;;;12.73;11.43;;;;;;;21.56;49.06;100898.16;6211164;23;20425;-61
2022/08/14 03:20:38;;;;;;;13.27;12.00;;;;;;;21.57;49.10;100899.00;6212267;23;20017;-61
2022/08/14 03:23:03;;;;;;;12.55;11.30;;;;;;;21.52;49.12;100902.81;6213565;23;20122;-60
2022/08/14 03:25:32;;;;;;;12.75;11.45;;;;;;;21.54;49.18;100905.31;6213992;23;20052;-61
2022/08/14 03:28:02;;;;;;;12.05;10.93;;;;;;;21.53;49.13;100900.81;6216282;23;20009;-61
2022/08/14 03:30:29;;;;;;;12.60;11.35;;;;;;;21.50;49.17;100895.84;6214984;23;20091;-61
2022/08/14 03:32:56;;;;;;;12.73;11.48;;;;;;;21.45;49.36;100890.31;6213351;23;20440;-61
2022/08/14 03:35:22;;;;;;;16.88;12.35;;;;;;;21.45;49.24;100890.31;6214884;23;20000;-61
2022/08/14 03:37:49;;;;;;;15.80;12.77;;;;;;;21.38;49.43;100889.94;6215172;23;20022;-62
2022/08/14 03:40:14;;;;;;;13.88;12.38;;;;;;;21.37;49.84;100882.63;6213446;23;20008;-61
2022/08/14 03:42:39;;;;;;;17.48;12.00;;;;;;;21.37;49.66;100877.00;6215183;23;20024;-62
2022/08/14 03:45:05;;;;;;;16.88;12.13;;;;;;;21.35;49.81;100879.31;6215345;23;20091;-62
2022/08/14 03:47:31;;;;;;;16.75;12.30;;;;;;;21.31;49.66;100879.09;6214050;23;20036;-61
2022/08/14 03:49:57;;;;;;;18.85;12.65;;;;;;;21.22;49.95;100887.53;6212905;23;20039;-61
2022/08/14 03:52:23;;;;;;;23.02;12.43;;;;;;;21.27;49.66;100881.75;6215841;23;20043;-62
2022/08/14 03:54:48;;;;;;;20.85;12.75;;;;;;;21.20;50.19;100877.72;6214012;23;20055;-61
2022/08/14 03:57:13;;;;;;;17.80;13.10;;;;;;;21.22;50.27;100884.72;6213744;23;20329;-62
2022/08/14 03:59:39;;;;;;;20.33;13.52;;;;;;;21.15;50.52;100887.16;6214739;23;20016;-62
2022/08/14 04:02:04;;;;;;;17.17;12.80;;;;;;;21.18;50.30;100885.66;6212644;23;20036;-61
2022/08/14 04:04:30;;;;;;;19.73;13.80;;;;;;;21.13;50.31;100885.81;6214871;23;19997;-61
2022/08/14 04:06:57;;;;;;;24.88;14.20;;;;;;;21.07;50.35;100879.47;6214026;23;20009;-61
2022/08/14 04:09:26;;;;;;;30.73;13.77;;;;;;;21.06;50.44;100880.63;6215511;23;20001;-61
2022/08/14 04:11:51;;;;;;;27.25;14.10;;;;;;;21.06;50.58;100878.66;6214937;23;20051;-61
2022/08/14 04:14:16;;;;;;;28.63;14.70;;;;;;;21.08;50.51;100881.97;6214035;23;20016;-61
2022/08/14 04:16:46;;;;;;;24.40;14.80;;;;;;;20.99;51.01;100878.28;6213837;23;20405;-61
2022/08/14 04:19:18;;;;;;;29.52;14.70;;;;;;;20.99;50.92;100874.63;6215567;23;20032;-61
2022/08/14 04:21:44;;;;;;;32.30;14.30;;;;;;;20.99;50.95;100872.63;6214539;23;20005;-61
2022/08/14 04:24:11;;;;;;;29.00;14.20;;;;;;;21.01;50.77;100873.13;6214031;23;20015;-61
2022/08/14 04:26:36;;;;;;;31.65;14.63;;;;;;;20.97;50.85;100868.44;6215003;23;20005;-61
2022/08/14 04:29:02;;;;;;;26.95;14.23;;;;;;;21.02;50.70;100877.59;6214125;23;20004;-61
2022/08/14 04:31:27;;;;;;;25.05;13.80;;;;;;;21.02;50.71;100868.31;6213842;23;20043;-61
2022/08/14 04:33:55;;;;;;;30.38;15.40;;;;;;;20.92;50.93;100872.25;6214738;23;20039;-61
2022/08/14 04:36:21;;;;;;;30.73;14.27;;;;;;;20.98;50.65;100864.47;6213240;23;20011;-60
2022/08/14 04:44:14;;;;;;;25.98;16.15;;;;;;;20.85;51.08;100849.28;6213555;23;20015;-61
2022/08/14 04:46:39;;;;;;;24.65;15.07;;;;;;;20.78;51.35;100855.38;6214727;23;20328;-61
2022/08/14 04:49:05;;;;;;;19.65;13.85;;;;;;;20.86;51.16;100853.78;6214299;23;20159;-61
2022/08/14 04:51:31;;;;;;;20.52;13.98;;;;;;;20.82;51.32;100853.59;6214324;23;20092;-61
2022/08/14 04:53:58;;;;;;;18.08;13.77;;;;;;;20.86;51.13;100853.78;6212641;23;20012;-61
2022/08/14 04:56:25;;;;;;;22.15;14.95;;;;;;;20.76;51.20;100845.59;6214799;23;20005;-60
2022/08/14 04:58:56;;;;;;;19.38;15.32;;;;;;;20.72;51.70;100848.22;6213223;23;20047;-61
2022/08/14 05:01:23;;;;;;;19.33;15.70;;;;;;;20.72;51.65;100847.41;6212318;23;20089;-60
2022/08/14 05:03:49;;;;;;;17.63;14.27;;;;;;;20.77;51.48;100848.09;6211481;23;20012;-61
2022/08/14 05:06:14;;;;;;;23.55;14.80;;;;;;;20.78;51.58;100835.63;6213984;23;20008;-61
2022/08/14 05:08:42;;;;;;;17.13;15.48;;;;;;;20.75;51.57;100836.31;6214242;23;20365;-61
2022/08/14 05:11:08;;;;;;;26.52;15.02;;;;;;;20.82;51.38;100833.84;6213114;23;20005;-61
2022/08/14 05:13:35;;;;;;;19.60;14.50;;;;;;;20.86;51.27;100847.31;6213346;23;20015;-61
2022/08/14 05:16:02;;;;;;;22.27;14.63;;;;;;;20.84;51.45;100847.63;6212855;23;20005;-62
2022/08/14 05:18:33;;;;;;;20.05;13.93;;;;;;;20.86;51.64;100842.50;6211990;23;20096;-62
2022/08/14 05:21:01;;;;;;;21.17;15.45;;;;;;;20.89;51.50;100836.22;6213881;23;20004;-62
2022/08/14 05:23:31;;;;;;;25.45;15.73;;;;;;;20.89;51.57;100841.03;6213879;23;20092;-62
2022/08/14 05:26:01;;;;;;;18.67;15.63;;;;;;;20.96;51.54;100838.56;6213135;23;20027;-61
2022/08/14 05:28:31;;;;;;;17.30;14.95;;;;;;;20.94;51.71;100841.69;6213755;23;20001;-61
2022/08/14 05:31:02;;;;;;;17.23;14.35;;;;;;;20.95;51.83;100834.09;6213372;23;20440;-61
2022/08/14 05:33:31;;;;;;;20.75;13.60;;;;;;;21.01;51.85;100844.91;6210396;23;20412;-63
2022/08/14 05:36:02;;;;;;;19.40;15.18;;;;;;;20.96;52.04;100836.59;6213361;23;20128;-62
2022/08/14 05:38:34;;;;;;;22.35;15.63;;;;;;;21.03;51.92;100839.78;6212602;23;20020;-62
2022/08/14 05:41:01;;;;;;;15.25;13.68;;;;;;;21.05;51.90;100836.63;6212880;23;20000;-61
2022/08/14 05:43:28;;;;;;;17.70;15.07;;;;;;;21.02;51.94;100842.91;6211916;23;20306;-62
2022/08/14 05:45:54;;;;;;;24.60;15.68;;;;;;;21.02;52.13;100834.44;6212808;23;20005;-62
2022/08/14 05:48:19;;;;;;;18.17;16.35;;;;;;;21.02;52.28;100829.63;6213263;23;20066;-62
2022/08/14 05:50:45;;;;;;;14.65;13.32;;;;;;;21.12;52.31;100831.34;6212659;23;20084;-61
2022/08/14 05:53:10;;;;;;;21.42;15.50;;;;;;;21.11;52.28;100829.69;6211532;23;20000;-61
2022/08/14 05:55:36;;;;;;;20.38;15.10;;;;;;;21.19;52.02;100837.38;6213848;23;20413;-61
2022/08/14 05:58:04;;;;;;;16.40;14.85;;;;;;;21.16;52.65;100828.72;6213108;23;20040;-61
2022/08/14 06:00:32;;;;;;;16.50;14.82;;;;;;;21.24;52.44;100830.75;6211838;23;20012;-62
2022/08/14 06:02:59;;;;;;;14.52;13.10;;;;;;;21.31;52.06;100823.47;6212678;23;20459;-60
2022/08/14 06:05:25;;;;;;;16.33;13.68;;;;;;;21.35;51.94;100822.84;6213485;23;20044;-60
2022/08/14 06:07:50;;;;;;;18.92;14.85;;;;;;;21.36;52.56;100821.69;6211242;23;20320;-61
2022/08/14 06:10:15;;;;;;;18.65;15.82;;;;;;;21.33;52.76;100825.97;6213812;23;20005;-61
2022/08/14 06:12:41;;;;;;;15.55;13.95;;;;;;;21.41;52.62;100824.34;6213774;23;20082;-61
2022/08/14 06:15:08;;;;;;;14.55;12.80;;;;;;;21.48;52.23;100836.84;6212798;23;20066;-61
2022/08/14 06:17:48;;;;;;;15.40;12.68;;;;;;;21.57;52.03;100828.38;6210183;23;20494;-61
2022/08/14 06:20:14;;;;;;;19.95;15.48;;;;;;;21.57;52.35;100825.56;6213938;23;20007;-61
2022/08/14 06:22:41;;;;;;;19.77;16.08;;;;;;;21.64;52.18;100820.28;6211701;23;20095;-61
2022/08/14 06:25:08;;;;;;;16.08;14.45;;;;;;;21.73;52.20;100821.16;6212952;23;20004;-61
2022/08/14 06:27:42;;;;;;;16.35;12.07;;;;;;;21.83;51.47;100817.16;6211307;23;20092;-60
2022/08/14 06:30:10;;;;;;;14.55;12.60;;;;;;;21.89;52.33;100815.00;6211449;23;20015;-61
2022/08/14 06:32:36;;;;;;;11.10;9.90;;;;;;;21.98;51.52;100811.03;6211242;23;20066;-61
2022/08/14 06:35:05;;;;;;;11.88;10.77;;;;;;;22.07;51.39;100816.69;6209846;23;20050;-61
2022/08/14 06:37:41;;;;;;;13.38;12.02;;;;;;;22.14;51.39;100810.56;6212845;23;20009;-61
2022/08/14 06:40:08;;;;;;;12.68;11.38;;;;;;;22.20;51.37;100810.06;6212938;23;20036;-61
2022/08/14 06:42:33;;;;;;;11.20;10.05;;;;;;;22.22;51.13;100812.56;6211249;23;20009;-61
2022/08/14 06:45:00;;;;;;;12.27;10.43;;;;;;;22.32;51.02;100812.22;6212947;23;20009;-61
2022/08/14 06:47:25;;;;;;;11.70;10.40;;;;;;;22.36;50.74;100809.56;6211833;23;20040;-61
2022/08/14 06:49:51;;;;;;;11.35;10.25;;;;;;;22.42;50.71;100803.41;6212043;23;20004;-61
2022/08/14 06:52:17;;;;;;;11.98;9.15;;;;;;;22.49;50.50;100806.56;6212989;23;20123;-61
2022/08/14 06:54:43;;;;;;;11.18;9.75;;;;;;;22.54;50.98;100809.22;6210976;23;20389;-61
2022/08/14 06:57:11;;;;;;;11.80;9.57;;;;;;;22.60;50.81;100812.72;6211789;23;20032;-62
2022/08/14 06:59:37;;;;;;;11.38;10.27;;;;;;;22.64;50.57;100810.88;6210259;23;20140;-63
2022/08/14 07:07:41;;;;;;;8.63;7.82;;;;;;;22.88;49.46;100799.00;6210180;23;20143;-60
2022/08/14 07:10:08;;;;;;;10.57;8.75;;;;;;;22.92;49.34;100797.19;6211529;23;20028;-61
2022/08/14 07:12:33;;;;;;;9.07;7.97;;;;;;;22.99;49.66;100796.63;6210727;23;20067;-61
2022/08/14 07:14:59;;;;;;;10.13;8.00;;;;;;;23.05;49.59;100792.47;6214856;23;20008;-60
2022/08/14 07:17:25;;;;;;;10.73;8.52;;;;;;;23.08;49.49;100783.28;6210220;23;20497;-60
2022/08/14 07:19:51;;;;;;;8.82;7.97;;;;;;;23.18;49.56;100787.72;6212306;23;20000;-61
2022/08/14 07:22:16;;;;;;;10.68;8.18;;;;;;;23.22;49.60;100795.19;6213893;23;20009;-61
2022/08/14 07:24:41;;;;;;;8.98;8.07;;;;;;;23.30;49.43;100795.50;6209993;23;20020;-61
2022/08/14 07:27:09;;;;;;;8.93;8.02;;;;;;;23.38;49.12;100797.47;6212699;23;20016;-61
2022/08/14 07:29:34;;;;;;;11.48;7.78;;;;;;;23.41;48.95;100797.63;6214827;23;20036;-61
2022/08/14 07:32:00;;;;;;;10.93;7.88;;;;;;;23.52;48.66;100793.22;6211675;23;20413;-61
2022/08/14 07:34:25;;;;;;;8.73;7.45;;;;;;;23.54;48.37;100798.56;6212201;23;20087;-61
2022/08/14 07:36:51;;;;;;;8.18;7.38;;;;;;;23.61;48.69;100796.00;6211206;23;20421;-61
2022/08/14 07:39:16;;;;;;;12.38;7.70;;;;;;;23.77;49.02;100791.41;6205298;23;20047;-62
2022/08/14 07:41:43;;;;;;;9.82;7.65;;;;;;;23.82;47.64;100792.41;6208893;23;20005;-63
2022/08/14 07:44:15;;;;;;;10.00;7.97;;;;;;;23.89;47.71;100792.69;6211251;23;20083;-61
2022/08/14 07:46:40;;;;;;;7.53;6.90;;;;;;;23.92;48.07;100784.31;6209183;23;20013;-61
2022/08/14 07:49:08;;;;;;;8.27;7.57;;;;;;;24.08;46.95;100790.19;6212317;23;20367;-62
2022/08/14 07:51:34;;;;;;;11.88;6.95;;;;;;;24.12;47.13;100785.50;6211365;23;20451;-63
2022/08/14 07:54:00;;;;;;;7.88;7.00;;;;;;;24.16;46.60;100792.13;6208637;23;20459;-63
2022/08/14 07:56:27;;;;;;;8.85;6.70;;;;;;;24.17;46.52;100787.28;6211840;23;20329;-63
2022/08/14 07:58:52;;;;;;;7.93;7.10;;;;;;;24.32;46.54;100789.47;6211622;23;20077;-62
2022/08/14 08:01:17;;;;;;;10.57;7.65;;;;;;;24.40;47.54;100791.44;6211623;23;20800;-63
2022/08/14 08:03:46;;;;;;;10.98;7.10;;;;;;;24.50;46.48;100798.72;6213475;23;20071;-63
2022/08/14 08:06:15;;;;;;;8.55;7.13;;;;;;;24.51;45.82;100794.69;6212861;23;20135;-63
2022/08/14 08:08:42;;;;;;;9.93;6.55;;;;;;;24.59;45.61;100790.94;6212294;23;20078;-62
2022/08/14 08:11:09;;;;;;;7.40;6.72;;;;;;;24.74;45.26;100797.94;6210369;23;20015;-62
2022/08/14 08:13:40;;;;;;;9.52;6.35;;;;;;;24.78;45.61;100793.22;6210867;23;20008;-61
2022/08/14 08:16:09;;;;;;;7.63;6.88;;;;;;;24.86;45.94;100792.31;6213496;23;20075;-63
2022/08/14 08:18:34;;;;;;;8.60;6.63;;;;;;;24.91;45.36;100780.72;6208080;23;20117;-62
2022/08/14 08:21:00;;;;;;;7.72;6.90;;;;;;;25.07;45.16;100774.34;6209925;23;20417;-61
2022/08/14 08:23:28;;;;;;;7.38;6.63;;;;;;;25.14;45.39;100774.63;6210523;23;20005;-63
2022/08/14 08:25:57;;;;;;;8.02;6.47;;;;;;;25.19;44.10;100774.38;6209513;23;20000;-63
2022/08/14 08:28:25;;;;;;;9.10;6.40;;;;;;;25.32;43.39;100755.34;6211245;23;20443;-62
2022/08/14 08:30:55;;;;;;;7.30;5.97;;;;;;;25.34;42.93;100758.66;6211001;23;20088;-62
2022/08/14 08:33:25;;;;;;;10.55;6.38;;;;;;;25.50;42.97;100756.75;6209379;23;20016;-62
2022/08/14 08:35:50;;;;;;;7.82;6.05;;;;;;;25.64;42.60;100759.22;6211549;23;20004;-62
2022/08/14 08:38:19;;;;;;;7.30;6.65;;;;;;;25.67;41.54;100762.19;6212304;23;20008;-62
2022/08/14 08:40:49;;;;;;;6.53;6.03;;;;;;;25.67;42.16;100762.19;6213732;23;20012;-63
2022/08/14 08:43:22;;;;;;;7.20;6.43;;;;;;;25.74;42.41;100769.25;6212509;23;20356;-62
2022/08/14 08:46:00;;;;;;;6.90;6.20;;;;;;;25.85;42.17;100774.13;6210868;23;20040;-62
2022/08/14 08:48:42;;;;;;;6.80;6.18;;;;;;;25.86;42.00;100770.13;6212209;23;20075;-64
2022/08/14 08:51:09;;;;;;;6.78;6.18;;;;;;;26.05;40.79;100763.75;6213026;23;20051;-63
2022/08/14 08:53:35;;;;;;;6.88;6.18;;;;;;;26.07;40.33;100763.44;6211862;23;20016;-63
2022/08/14 08:56:02;;;;;;;10.90;5.50;;;;;;;26.15;40.16;100757.59;6210678;23;20012;-63
2022/08/14 08:58:28;;;;;;;8.88;5.97;;;;;;;26.17;40.07;100752.38;6211469;23;20016;-63
2022/08/14 09:00:57;;;;;;;6.90;6.30;;;;;;;26.24;39.39;100756.59;6212916;23;20019;-64
2022/08/14 09:03:27;;;;;;;6.13;5.50;;;;;;;26.33;40.52;100760.09;6209155;23;20011;-62
2022/08/14 09:06:04;;;;;;;6.45;5.70;;;;;;;26.50;39.94;100761.84;6211639;23;20004;-63
2022/08/14 09:08:34;;;;;;;7.20;5.97;;;;;;;26.48;40.06;100758.53;6212085;23;20001;-63
2022/08/14 09:11:06;;;;;;;6.82;5.35;;;;;;;26.50;39.00;100745.59;6210946;23;20001;-62
2022/08/14 09:13:31;;;;;;;7.35;5.82;;;;;;;26.64;38.50;100750.84;6212097;23;20317;-63
2022/08/14 09:15:57;;;;;;;6.90;5.55;;;;;;;26.77;37.51;100743.09;6213743;23;20009;-63
2022/08/14 09:18:23;;;;;;;6.75;5.90;;;;;;;26.81;37.90;100747.69;6211342;23;20009;-63
2022/08/14 09:20:50;;;;;;;5.80;5.18;;;;;;;26.90;38.21;100738.94;6212624;23;20009;-62
2022/08/14 09:23:16;;;;;;;6.18;5.30;;;;;;;26.93;38.60;100732.53;6210693;23;20000;-62
2022/08/14 09:25:45;;;;;;;6.32;5.55;;;;;;;26.86;38.86;100736.00;6209782;23;20001;-62
2022/08/14 09:28:11;;;;;;;6.28;5.63;;;;;;;27.12;39.64;100737.53;6212401;23;20008;-62
2022/08/14 09:30:41;;;;;;;8.38;6.57;;;;;;;27.04;40.19;100730.78;6210157;23;20019;-62
2022/08/14 09:33:25;;;;;;;11.77;6.22;;;;;;;27.06;40.35;100733.25;6212911;23;20024;-62
2022/08/14 09:36:21;;;;;;;6.80;5.80;;;;;;;27.08;40.33;100734.53;6211870;23;20179;-62
2022/08/14 09:39:00;;;;;;;9.18;6.80;;;;;;;27.13;39.93;100733.47;6211329;23;20015;-63
2022/08/14 09:42:02;;;;;;;8.05;6.45;;;;;;;27.25;39.68;100724.00;6211852;23;20008;-63
2022/08/14 09:45:11;;;;;;;5.93;5.40;;;;;;;27.15;40.02;100708.28;6210729;23;20055;-62
2022/08/14 09:48:15;;;;;;;6.45;4.75;;;;;;;27.24;38.62;100708.09;6060255;23;20321;-62
2022/08/14 09:51:07;;;;;;;6.70;5.18;;;;;;;27.28;38.31;100703.31;6212203;23;20005;-62
2022/08/14 09:53:43;;;;;;;6.93;5.57;;;;;;;27.49;38.42;100700.94;6204023;23;20098;-63
2022/08/14 09:56:10;;;;;;;6.72;5.88;;;;;;;27.55;38.28;100702.31;6211264;23;20306;-64
2022/08/14 09:58:39;;;;;;;7.78;6.10;;;;;;;27.50;39.09;100698.91;6209995;23;20416;-63
2022/08/14 10:01:11;;;;;;;9.40;6.30;;;;;;;27.60;38.82;100704.88;6210166;23;20026;-62
2022/08/14 10:03:47;;;;;;;8.10;6.68;;;;;;;27.60;39.28;100695.50;6211938;23;20097;-62
2022/08/14 10:06:18;;;;;;;7.53;6.07;;;;;;;27.72;39.30;100701.06;6211430;23;20001;-64
2022/08/14 10:08:50;;;;;;;9.15;6.18;;;;;;;27.68;38.52;100687.94;6212254;23;20015;-63
2022/08/14 10:11:20;;;;;;;;;;;;;;;27.57;39.70;100685.66;6210227;23;20004;-62
2022/08/14 10:13:53;;;;;;;6.80;6.20;;;;;;;27.62;38.97;100681.69;6210714;23;19919;-62
2022/08/14 10:16:25;;;;;;;11.52;5.90;;;;;;;27.70;38.27;100683.50;6211985;23;20004;-63
2022/08/14 10:19:21;;;;;;;7.20;6.07;;;;;;;27.69;38.36;100684.69;6211694;23;20008;-62
2022/08/14 10:22:07;;;;;;;6.43;5.78;;;;;;;27.78;38.91;100679.63;6180008;23;20055;-62
2022/08/14 10:24:43;;;;;;;7.78;6.07;;;;;;;27.78;38.58;100671.06;6209326;23;20004;-62
2022/08/14 10:27:22;;;;;;;8.57;6.55;;;;;;;27.84;39.01;100674.47;6211196;23;20084;-62
2022/08/14 10:29:50;;;;;;;10.32;6.32;;;;;;;27.92;39.62;100670.56;6211074;23;20073;-63
2022/08/14 10:32:16;;;;;;;7.15;6.10;;;;;;;28.12;38.94;100669.34;6210252;23;20036;-63
2022/08/14 10:34:42;;;;;;;8.05;6.07;;;;;;;28.01;38.04;100654.03;6210465;23;20062;-61
2022/08/14 10:37:10;;;;;;;6.15;5.60;;;;;;;27.95;38.02;100651.88;6211855;23;20008;-62
2022/08/14 10:39:40;;;;;;;5.82;5.30;;;;;;;28.08;38.12;100650.50;6209870;23;20079;-61
2022/08/14 10:42:14;;;;;;;6.30;5.70;;;;;;;28.12;38.31;100643.66;6209906;23;20009;-63
2022/08/14 10:44:48;;;;;;;7.32;5.63;;;;;;;28.14;37.63;100641.25;6211679;23;20011;-63
2022/08/14 10:47:16;;;;;;;6.20;5.28;;;;;;;28.36;36.90;100633.94;6211085;23;20008;-63
2022/08/14 10:49:55;;;;;;;6.25;5.35;;;;;;;28.42;36.41;100648.75;6210003;23;20128;-63
2022/08/14 10:52:27;;;;;;;5.93;5.25;;;;;;;28.49;36.74;100645.19;6211629;23;20005;-62
2022/08/14 10:55:14;;;;;;;7.78;5.00;;;;;;;28.48;36.50;100646.38;6208929;23;20016;-62
2022/08/14 10:57:51;;;;;;;5.75;5.10;;;;;;;28.55;36.43;100641.63;6210605;23;20015;-63
2022/08/14 11:00:25;;;;;;;7.68;4.97;;;;;;;28.74;36.04;100631.34;6210942;23;20020;-62
2022/08/14 11:03:01;;;;;;;7.13;4.88;;;;;;;28.72;35.59;100628.03;6209425;23;20015;-62
2022/08/14 11:05:49;;;;;;;5.07;4.60;;;;;;;28.66;35.49;100630.41;6211707;23;20004;-62
2022/08/14 11:08:18;;;;;;;7.35;5.00;;;;;;;28.64;35.49;100635.66;6209311;23;20096;-62
2022/08/14 11:10:56;;;;;;;6.95;5.15;;;;;;;28.58;36.08;100638.03;6210468;23;20004;-62
2022/08/14 11:13:26;;;;;;;5.32;4.93;;;;;;;28.71;35.99;100632.13;6210676;23;20439;-62
2022/08/14 11:15:55;;;;;;;5.40;4.90;;;;;;;28.70;34.45;100634.16;6210745;23;20028;-62
2022/08/14 11:18:21;;;;;;;5.40;4.53;;;;;;;28.80;35.00;100635.53;6210614;23;20066;-62
2022/08/14 11:20:54;;;;;;;5.15;4.65;;;;;;;28.74;35.22;100632.19;6210650;23;20421;-62
2022/08/14 11:23:24;;;;;;;6.47;5.03;;;;;;;28.82;34.54;100633.13;6209947;23;20016;-62
2022/08/14 11:25:51;;;;;;;6.53;5.07;;;;;;;28.87;34.45;100622.19;6211104;23;20007;-63
2022/08/14 11:28:22;;;;;;;6.22;4.85;;;;;;;28.79;35.25;100629.00;6210490;23;20421;-62
2022/08/14 11:30:49;;;;;;;5.15;4.65;;;;;;;28.81;35.55;100625.75;6210106;23;20413;-63
2022/08/14 11:33:14;;;;;;;6.75;5.35;;;;;;;28.83;35.96;100617.63;6210737;23;20016;-62
2022/08/14 11:35:41;;;;;;;6.38;5.57;;;;;;;28.91;35.52;100632.84;6211675;23;20001;-62
2022/08/14 11:38:06;;;;;;;5.63;5.13;;;;;;;28.85;35.65;100626.66;6208184;23;20067;-62